Terminal Aerodrome Forecast
Issued by NWS

Home | Current Version | Previous Version | Text Only | Print | Product List | Glossary On
Versions: 1 2 3 4 5 6 7 8 9 10 11 12 13 14 15 16
000
FTUS42 KMLB 162200 AAA
TAFTIX
TAF AMD
KTIX 162200Z 1622/1718 VRB05KT P6SM VCSH SCT040 BKN150
      TEMPO 1622/1624 2SM TSRA BKN035CB OVC050
     FM170100 26004KT P6SM SCT070 OVC150
     FM171400 25010KT P6SM FEW020 SCT100 SCT250=

USA.gov is the U.S. government's official web portal to all federal, state and local government web resources and services.